Terminal Aerodrome Forecast
Issued by NWS Sioux Falls, SD

Home | Current Version | Previous Version | Text Only | Print | Product List | Glossary Off
Versions: 1 2 3 4 5 6 7 8 9 10 11 12 13 14 15 16 17 18 19 20 21 22 23 24 25 26 27 28 29 30 31 32 33 34

000
FTUS43 KFSD 231723
TAFSUX
TAF
KSUX 231723Z 2318/2418 05017KT P6SM OVC015
     FM231900 05018KT P6SM VCSH OVC015
     FM232200 05019G28KT 6SM -RA OVC010
     FM240000 05019G29KT 2SM RA OVC010
     FM240200 03020G29KT 1SM RASN BLSN OVC010
     FM240400 03020G30KT 1/2SM SN BLSN OVC008
     FM241400 35022G32KT 1 1/2SM -SN BLSN OVC015=

USA.gov is the U.S. government's official web portal to all federal, state and local government web resources and services.